Cordova, Alaska
Current Conditions -  °F | °C
As of 7:53 AM on Thursday 30 Oct 2014 (Local Time) from PACV Reporting Station
Few Clouds Few Clouds  
Wind Chill: 25°   Ceiling: Unl
Heat Index: 25°   Visibility: 10mi
Dew Point: 24°   Wind: 0mph
Humidity: 96%   Direction: NA
Pressure: 29.45"   Gusts: NA
Location:  60.54°N, 145.76°W
Report Text: PACV 301553Z 00000KT 10SM FEW055 FEW090 M04/M04 A2945 RMK AO2 SLP971 T10391044
Loading
Personal Weather Stations






























Interactive Weather Map
Tropical Storm Tracking
New forecast layout! Learn more

10-Day Weather Forecast

Advertisements
Track Severe Weather on mobile